createdAt,value
2018-03-30T00:00:08.872Z,2.73
2018-03-30T00:01:08.893Z,2.74
2018-03-30T00:02:08.902Z,2.81
2018-03-30T00:03:08.921Z,2.68
2018-03-30T00:04:08.942Z,2.71
2018-03-30T00:05:08.951Z,2.65
2018-03-30T00:06:08.971Z,2.61
2018-03-30T00:07:08.986Z,2.62
2018-03-30T00:08:09.001Z,2.59
2018-03-30T00:09:09.023Z,2.53
2018-03-30T00:10:09.032Z,2.61
2018-03-30T00:11:09.061Z,2.47
2018-03-30T00:12:09.071Z,2.40
2018-03-30T00:13:09.085Z,2.25
2018-03-30T00:14:09.100Z,2.19
2018-03-30T00:15:09.116Z,2.14
2018-03-30T00:16:09.131Z,2.22
2018-03-30T00:17:09.154Z,2.18
2018-03-30T00:18:09.165Z,2.33
2018-03-30T00:19:09.184Z,2.55
2018-03-30T00:20:09.200Z,2.63
2018-03-30T00:21:09.220Z,2.84
2018-03-30T00:22:09.234Z,2.73
2018-03-30T00:23:09.245Z,2.86
2018-03-30T00:24:09.272Z,2.87
2018-03-30T00:25:09.280Z,2.80
2018-03-30T00:26:09.296Z,2.79
2018-03-30T00:27:09.320Z,2.65
2018-03-30T00:28:09.364Z,2.68
2018-03-30T00:29:09.351Z,2.63
2018-03-30T00:30:09.364Z,2.48
2018-03-30T00:31:09.379Z,2.50
2018-03-30T00:32:09.400Z,2.50
2018-03-30T00:33:09.410Z,2.36
2018-03-30T00:34:09.433Z,2.43
2018-03-30T00:35:09.441Z,2.32
2018-03-30T00:36:09.466Z,2.20
2018-03-30T00:37:09.476Z,2.30
2018-03-30T00:38:09.494Z,2.20
2018-03-30T00:39:09.509Z,2.19
2018-03-30T00:40:09.525Z,2.25
2018-03-30T00:41:09.540Z,2.32
2018-03-30T00:42:09.556Z,2.45
2018-03-30T00:43:09.592Z,2.43
2018-03-30T00:44:09.591Z,2.29
2018-03-30T00:45:09.605Z,2.41
2018-03-30T00:46:09.620Z,2.32
2018-03-30T00:47:09.637Z,2.14
2018-03-30T00:48:09.657Z,2.05
2018-03-30T00:49:09.670Z,2.18
2018-03-30T00:50:09.692Z,2.18
2018-03-30T00:51:09.703Z,2.08
2018-03-30T00:52:09.722Z,2.09
2018-03-30T00:53:09.739Z,2.27
2018-03-30T00:54:09.754Z,2.18
2018-03-30T00:55:09.769Z,2.05
2018-03-30T00:56:09.784Z,2.07
2018-03-30T00:57:09.803Z,2.18
2018-03-30T00:58:09.814Z,2.04
2018-03-30T00:59:09.836Z,2.01
2018-03-30T01:00:09.851Z,1.90
2018-03-30T01:01:09.868Z,1.89
2018-03-30T01:02:09.882Z,1.77
2018-03-30T01:03:09.899Z,1.77
2018-03-30T01:04:09.916Z,1.74
2018-03-30T01:05:09.929Z,1.90
2018-03-30T01:06:09.945Z,2.07
2018-03-30T01:07:09.961Z,2.22
2018-03-30T01:08:09.978Z,2.18
2018-03-30T01:09:09.993Z,2.12
2018-03-30T01:10:10.009Z,2.15
2018-03-30T01:11:10.030Z,2.02
2018-03-30T01:12:10.045Z,2.23
2018-03-30T01:13:10.062Z,2.32
2018-03-30T01:14:10.078Z,2.23
2018-03-30T01:15:10.093Z,2.14
2018-03-30T01:16:10.107Z,2.08
2018-03-30T01:17:10.126Z,2.12
2018-03-30T01:18:10.138Z,2.18
2018-03-30T01:19:10.162Z,2.07
2018-03-30T01:20:10.176Z,2.19
2018-03-30T01:21:10.190Z,2.19
2018-03-30T01:22:10.202Z,2.19
2018-03-30T01:23:10.224Z,2.15
2018-03-30T01:24:10.238Z,2.09
2018-03-30T01:25:10.250Z,2.01
2018-03-30T01:26:10.271Z,1.90
2018-03-30T01:27:10.290Z,2.00
2018-03-30T01:28:10.298Z,1.92
2018-03-30T01:29:10.316Z,1.75
2018-03-30T01:30:10.335Z,1.86
2018-03-30T01:31:10.351Z,1.86
2018-03-30T01:32:10.371Z,1.92
2018-03-30T01:33:10.386Z,1.90
2018-03-30T01:34:10.401Z,1.82
2018-03-30T01:35:10.413Z,1.82
2018-03-30T01:36:10.435Z,1.85
2018-03-30T01:37:10.447Z,1.71
2018-03-30T01:38:10.463Z,1.71
2018-03-30T01:39:10.476Z,1.75
2018-03-30T01:40:10.491Z,1.79
2018-03-30T01:41:10.510Z,1.72
2018-03-30T01:42:10.529Z,2.00
2018-03-30T01:44:10.561Z,2.08
2018-03-30T01:45:10.580Z,2.14
2018-03-30T01:46:10.594Z,2.00
2018-03-30T01:47:10.620Z,2.14
2018-03-30T01:48:10.621Z,2.11
2018-03-30T01:49:10.638Z,1.86
2018-03-30T01:50:10.658Z,1.89
2018-03-30T01:51:10.677Z,1.79
2018-03-30T01:52:10.686Z,1.79
2018-03-30T01:53:10.700Z,1.71
2018-03-30T01:54:10.721Z,1.92
2018-03-30T01:55:10.739Z,2.11
2018-03-30T01:56:10.750Z,2.04
2018-03-30T01:57:10.766Z,2.09
2018-03-30T01:58:10.792Z,2.01
2018-03-30T01:59:10.800Z,2.01
2018-03-30T02:00:10.821Z,2.02
2018-03-30T02:01:10.835Z,1.90
2018-03-30T02:02:10.845Z,1.83
2018-03-30T02:03:10.865Z,1.83
2018-03-30T02:04:10.880Z,1.81
2018-03-30T02:05:10.894Z,1.68
2018-03-30T02:06:10.910Z,1.54
2018-03-30T02:07:10.929Z,1.65
2018-03-30T02:08:10.948Z,1.54
2018-03-30T02:09:10.960Z,1.75
2018-03-30T02:10:10.978Z,1.93
2018-03-30T02:11:10.993Z,1.95
2018-03-30T02:12:11.007Z,2.00
2018-03-30T02:13:11.030Z,1.98
2018-03-30T02:14:11.040Z,2.00
2018-03-30T02:15:11.058Z,2.05
2018-03-30T02:16:11.078Z,1.89
2018-03-30T02:17:11.120Z,2.04
2018-03-30T02:18:11.104Z,1.95
2018-03-30T02:19:11.118Z,1.83
2018-03-30T02:20:11.139Z,1.77
2018-03-30T02:21:11.149Z,1.93
2018-03-30T02:22:11.165Z,1.92
2018-03-30T02:23:11.187Z,2.01
2018-03-30T02:24:11.204Z,2.04
2018-03-30T02:25:11.218Z,1.95
2018-03-30T02:26:11.232Z,1.92
2018-03-30T02:27:11.245Z,1.81
2018-03-30T02:28:11.264Z,1.72
2018-03-30T02:29:11.284Z,1.63
2018-03-30T02:30:11.296Z,1.54
2018-03-30T02:31:11.314Z,1.53
2018-03-30T02:32:11.325Z,1.44
2018-03-30T02:33:11.346Z,1.35
2018-03-30T02:34:11.375Z,1.57
2018-03-30T02:35:11.378Z,1.72
2018-03-30T02:36:11.417Z,1.77
2018-03-30T02:37:11.413Z,1.89
2018-03-30T02:38:11.424Z,1.85
2018-03-30T02:39:11.439Z,1.93
2018-03-30T02:40:11.454Z,2.00
2018-03-30T02:41:11.478Z,1.89
2018-03-30T02:42:11.485Z,1.88
2018-03-30T02:43:11.502Z,1.98
2018-03-30T02:44:11.518Z,1.86
2018-03-30T02:45:11.532Z,1.86
2018-03-30T02:46:11.550Z,1.92
2018-03-30T02:47:11.569Z,1.88
2018-03-30T02:48:11.586Z,1.88
2018-03-30T02:49:11.599Z,1.83
2018-03-30T02:50:11.612Z,1.79
2018-03-30T02:51:11.632Z,1.82
2018-03-30T02:52:11.647Z,1.90
2018-03-30T02:53:11.667Z,1.95
2018-03-30T02:54:11.677Z,1.95
2018-03-30T02:55:11.692Z,2.05
2018-03-30T02:56:11.718Z,1.93
2018-03-30T02:57:11.729Z,1.95
2018-03-30T02:58:11.743Z,1.92
2018-03-30T02:59:11.766Z,1.68
2018-03-30T03:00:11.773Z,1.75
2018-03-30T03:01:11.787Z,1.85
2018-03-30T03:02:11.807Z,1.74
2018-03-30T03:03:11.827Z,1.88
2018-03-30T03:04:11.846Z,1.83
2018-03-30T03:05:11.864Z,1.72
2018-03-30T03:06:11.870Z,1.68
2018-03-30T03:07:11.885Z,1.65
2018-03-30T03:08:11.903Z,1.65
2018-03-30T03:09:11.924Z,1.77
2018-03-30T03:10:11.934Z,1.86
2018-03-30T03:11:11.951Z,1.89
2018-03-30T03:12:11.962Z,1.88
2018-03-30T03:13:11.985Z,2.05
2018-03-30T03:14:12.004Z,1.86
2018-03-30T03:15:12.014Z,1.89
2018-03-30T03:16:12.031Z,1.92
2018-03-30T03:17:12.047Z,2.01
2018-03-30T03:18:12.088Z,2.05
2018-03-30T03:19:12.076Z,2.08
2018-03-30T03:20:12.090Z,2.01
2018-03-30T03:21:12.105Z,1.95
2018-03-30T03:22:12.127Z,2.01
2018-03-30T03:23:12.140Z,1.88
2018-03-30T03:24:12.167Z,1.85
2018-03-30T03:25:12.173Z,1.88
2018-03-30T03:26:12.185Z,1.83
2018-03-30T03:27:12.201Z,1.82
2018-03-30T03:28:12.220Z,1.89
2018-03-30T03:29:12.246Z,1.86
2018-03-30T03:30:12.260Z,1.83
2018-03-30T03:31:12.266Z,1.86
2018-03-30T03:32:12.286Z,1.74
2018-03-30T03:33:12.295Z,1.70
2018-03-30T03:34:12.312Z,1.67
2018-03-30T03:35:12.330Z,1.64
2018-03-30T03:36:12.345Z,1.81
2018-03-30T03:37:12.363Z,1.88
2018-03-30T03:38:12.380Z,1.77
2018-03-30T03:39:12.395Z,1.85
2018-03-30T03:40:12.413Z,1.86
2018-03-30T03:41:12.430Z,1.85
2018-03-30T03:42:12.439Z,1.83
2018-03-30T03:43:12.457Z,1.92
2018-03-30T03:44:12.470Z,2.02
2018-03-30T03:45:12.490Z,2.05
2018-03-30T03:46:12.497Z,2.02
2018-03-30T03:47:12.523Z,2.08
2018-03-30T03:48:12.544Z,2.12
2018-03-30T03:49:12.557Z,2.00
2018-03-30T03:50:12.563Z,1.75
2018-03-30T03:51:12.578Z,1.74
2018-03-30T03:52:12.593Z,1.83
2018-03-30T03:53:12.618Z,1.88
2018-03-30T03:54:12.628Z,1.82
2018-03-30T03:55:12.646Z,1.68
2018-03-30T03:56:12.661Z,1.75
2018-03-30T03:57:12.676Z,1.79
2018-03-30T03:58:12.693Z,1.79
2018-03-30T03:59:12.708Z,1.90
2018-03-30T04:00:12.731Z,1.85
2018-03-30T04:01:12.738Z,1.83
2018-03-30T04:02:12.754Z,1.85
2018-03-30T04:03:12.767Z,1.98
2018-03-30T04:04:12.792Z,1.98
2018-03-30T04:05:12.803Z,1.90
2018-03-30T04:06:12.818Z,1.89
2018-03-30T04:07:12.831Z,1.86
2018-03-30T04:08:12.849Z,2.02
2018-03-30T04:09:12.863Z,1.86
2018-03-30T04:10:12.877Z,1.98
2018-03-30T04:11:12.892Z,1.92
2018-03-30T04:12:12.907Z,1.82
2018-03-30T04:13:12.931Z,1.85
2018-03-30T04:14:12.946Z,1.77
2018-03-30T04:15:12.958Z,1.81
2018-03-30T04:16:12.972Z,1.74
2018-03-30T04:17:12.988Z,1.54
2018-03-30T04:18:13.007Z,1.52
2018-03-30T04:19:13.041Z,1.29
2018-03-30T04:20:13.036Z,1.34
2018-03-30T04:21:13.052Z,1.29
2018-03-30T04:22:13.066Z,1.38
2018-03-30T04:23:13.083Z,1.28
2018-03-30T04:24:13.101Z,1.36
2018-03-30T04:25:13.117Z,1.36
2018-03-30T04:26:13.130Z,1.44
2018-03-30T04:27:13.185Z,1.68
2018-03-30T04:28:13.160Z,1.68
2018-03-30T04:29:13.176Z,1.82
2018-03-30T04:30:13.194Z,1.90
2018-03-30T04:31:13.217Z,1.86
2018-03-30T04:32:13.227Z,1.86
2018-03-30T04:33:13.244Z,1.93
2018-03-30T04:34:13.275Z,1.85
2018-03-30T04:35:13.271Z,1.74
2018-03-30T04:36:13.290Z,1.82
2018-03-30T04:37:13.302Z,1.68
2018-03-30T04:38:13.320Z,1.83
2018-03-30T04:39:13.335Z,1.71
2018-03-30T04:40:13.348Z,1.65
2018-03-30T04:41:13.366Z,1.56
2018-03-30T04:42:13.379Z,1.56
2018-03-30T04:43:13.400Z,1.43
2018-03-30T04:44:13.423Z,1.44
2018-03-30T04:45:13.430Z,1.43
2018-03-30T04:46:13.444Z,1.63
2018-03-30T04:47:13.455Z,1.54
2018-03-30T04:48:13.479Z,1.68
2018-03-30T04:49:13.493Z,1.44
2018-03-30T04:50:13.509Z,1.29
2018-03-30T04:51:13.522Z,1.28
2018-03-30T04:52:13.544Z,1.36
2018-03-30T04:53:13.559Z,1.63
2018-03-30T04:54:13.570Z,1.61
2018-03-30T04:55:13.627Z,1.65
2018-03-30T04:56:13.600Z,1.63
2018-03-30T04:57:13.618Z,1.65
2018-03-30T04:58:13.634Z,1.64
2018-03-30T04:59:13.648Z,1.75
2018-03-30T05:00:13.670Z,1.92
2018-03-30T05:01:13.685Z,1.83
2018-03-30T05:02:13.695Z,1.92
2018-03-30T05:03:13.709Z,1.93
2018-03-30T05:04:13.726Z,1.89
2018-03-30T05:05:13.739Z,1.95
2018-03-30T05:06:13.754Z,1.90
2018-03-30T05:07:13.773Z,2.02
2018-03-30T05:08:13.789Z,1.95
2018-03-30T05:09:13.799Z,1.89
2018-03-30T05:10:13.823Z,1.98
2018-03-30T05:11:13.834Z,1.93
2018-03-30T05:12:13.846Z,1.92
2018-03-30T05:13:13.865Z,1.92
2018-03-30T05:14:13.878Z,1.89
2018-03-30T05:15:13.905Z,2.02
2018-03-30T05:16:13.912Z,1.95
2018-03-30T05:17:13.923Z,2.01
2018-03-30T05:18:13.944Z,2.01
2018-03-30T05:19:13.961Z,2.02
2018-03-30T05:20:14.000Z,1.82
2018-03-30T05:21:13.991Z,1.86
2018-03-30T05:22:14.005Z,1.85
2018-03-30T05:23:14.022Z,1.92
2018-03-30T05:24:14.032Z,1.95
2018-03-30T05:25:14.052Z,1.93
2018-03-30T05:26:14.063Z,1.77
2018-03-30T05:27:14.082Z,1.93
2018-03-30T05:28:14.105Z,2.00
2018-03-30T05:29:14.114Z,2.09
2018-03-30T05:30:14.133Z,2.09
2018-03-30T05:31:14.150Z,2.20
2018-03-30T05:32:14.166Z,2.27
2018-03-30T05:33:14.175Z,2.23
2018-03-30T05:34:14.198Z,2.23
2018-03-30T05:35:14.212Z,2.29
2018-03-30T05:36:14.225Z,2.20
2018-03-30T05:37:14.243Z,2.19
2018-03-30T05:38:14.256Z,2.18
2018-03-30T05:39:14.275Z,2.05
2018-03-30T05:40:14.286Z,2.14
2018-03-30T05:41:14.305Z,2.19
2018-03-30T05:42:14.319Z,2.19
2018-03-30T05:43:14.333Z,2.15
2018-03-30T05:44:14.346Z,2.15
2018-03-30T05:45:14.366Z,2.09
2018-03-30T05:46:14.411Z,2.12
2018-03-30T05:47:14.401Z,2.20
2018-03-30T05:48:14.411Z,2.22
2018-03-30T05:49:14.429Z,2.07
2018-03-30T05:50:14.443Z,2.14
2018-03-30T05:51:14.463Z,2.11
2018-03-30T05:52:14.477Z,2.08
2018-03-30T05:53:14.500Z,1.92
2018-03-30T05:54:14.506Z,1.88
2018-03-30T05:55:14.528Z,1.98
2018-03-30T05:56:14.537Z,1.98
2018-03-30T05:57:14.556Z,2.00
2018-03-30T05:58:14.572Z,2.02
2018-03-30T05:59:14.591Z,2.01
2018-03-30T06:00:14.608Z,2.04
2018-03-30T06:01:14.619Z,2.05
2018-03-30T06:02:14.631Z,1.93
2018-03-30T06:03:14.650Z,2.08
2018-03-30T06:04:14.669Z,2.05
2018-03-30T06:05:14.680Z,2.19
2018-03-30T06:06:14.705Z,2.20
2018-03-30T06:07:14.719Z,2.19
2018-03-30T06:08:14.725Z,2.12
2018-03-30T06:09:14.749Z,2.19
2018-03-30T06:10:14.755Z,2.05
2018-03-30T06:11:14.775Z,2.09
2018-03-30T06:12:14.797Z,2.11
2018-03-30T06:13:14.808Z,2.23
2018-03-30T06:14:14.824Z,2.22
2018-03-30T06:15:14.840Z,2.23
2018-03-30T06:16:14.859Z,2.32
2018-03-30T06:17:14.875Z,2.33
2018-03-30T06:18:14.891Z,2.37
2018-03-30T06:19:14.912Z,2.32
2018-03-30T06:20:14.916Z,2.37
2018-03-30T06:21:14.931Z,2.47
2018-03-30T06:22:14.946Z,2.51
2018-03-30T06:23:14.969Z,2.63
2018-03-30T06:24:14.979Z,2.59
2018-03-30T06:25:14.998Z,2.45
2018-03-30T06:26:15.009Z,2.36
2018-03-30T06:27:15.028Z,2.44
2018-03-30T06:28:15.042Z,2.36
2018-03-30T06:29:15.059Z,2.38
2018-03-30T06:30:15.069Z,2.45
2018-03-30T06:31:15.092Z,2.56
2018-03-30T06:32:15.105Z,2.53
2018-03-30T06:33:15.125Z,2.58
2018-03-30T06:34:15.137Z,2.41
2018-03-30T06:35:15.158Z,2.50
2018-03-30T06:36:15.214Z,2.43
2018-03-30T06:37:15.198Z,2.40
2018-03-30T06:38:15.245Z,2.47
2018-03-30T06:39:15.224Z,2.43
2018-03-30T06:40:15.235Z,2.51
2018-03-30T06:41:15.251Z,2.53
2018-03-30T06:42:15.264Z,2.55
2018-03-30T06:43:15.279Z,2.63
2018-03-30T06:44:15.304Z,2.63
2018-03-30T06:45:15.309Z,2.66
2018-03-30T06:46:15.339Z,2.62
2018-03-30T06:47:15.343Z,2.73
2018-03-30T06:48:15.358Z,2.73
2018-03-30T06:49:15.378Z,2.76
2018-03-30T06:50:15.389Z,2.76
2018-03-30T06:51:15.411Z,2.74
2018-03-30T06:52:15.423Z,2.68
2018-03-30T06:53:15.441Z,2.80
2018-03-30T06:54:15.459Z,2.68
2018-03-30T06:55:15.475Z,2.74
2018-03-30T06:56:15.488Z,2.69
2018-03-30T06:57:15.514Z,2.65
2018-03-30T06:58:15.528Z,2.68
2018-03-30T06:59:15.541Z,2.68
2018-03-30T07:00:15.553Z,2.74
2018-03-30T07:01:15.569Z,2.68
2018-03-30T07:02:15.589Z,2.74
2018-03-30T07:03:15.607Z,2.81
2018-03-30T07:04:15.617Z,2.79
2018-03-30T07:05:15.638Z,2.74
2018-03-30T07:06:15.652Z,2.81
2018-03-30T07:07:15.677Z,2.84
2018-03-30T07:08:15.688Z,2.81
2018-03-30T07:09:15.703Z,2.86
2018-03-30T07:10:15.717Z,2.98
2018-03-30T07:11:15.739Z,2.94
2018-03-30T07:12:15.767Z,3.05
2018-03-30T07:13:15.767Z,3.10
2018-03-30T07:14:15.782Z,3.10
2018-03-30T07:15:15.805Z,3.15
2018-03-30T07:16:15.818Z,3.20
2018-03-30T07:17:15.833Z,3.20
2018-03-30T07:18:15.847Z,3.20
2018-03-30T07:19:15.867Z,3.34
2018-03-30T07:20:15.885Z,3.22
2018-03-30T07:21:15.901Z,3.30
2018-03-30T07:22:15.916Z,3.31
2018-03-30T07:23:15.935Z,3.42
2018-03-30T07:24:15.948Z,3.34
2018-03-30T07:25:15.967Z,3.37
2018-03-30T07:26:15.984Z,3.46
2018-03-30T07:27:15.997Z,3.49
2018-03-30T07:28:16.019Z,3.50
2018-03-30T07:29:16.038Z,3.63
2018-03-30T07:30:16.050Z,3.54
2018-03-30T07:31:16.064Z,3.71
2018-03-30T07:32:16.085Z,3.77
2018-03-30T07:33:16.099Z,3.81
2018-03-30T07:34:16.117Z,3.84
2018-03-30T07:35:16.141Z,3.92
2018-03-30T07:36:16.150Z,3.92
2018-03-30T07:37:16.165Z,4.00
2018-03-30T07:38:16.180Z,3.92
2018-03-30T07:39:16.201Z,3.95
2018-03-30T07:40:16.215Z,4.11
2018-03-30T07:41:16.230Z,4.07
2018-03-30T07:42:16.250Z,4.13
2018-03-30T07:43:16.269Z,4.08
2018-03-30T07:44:16.288Z,4.07
2018-03-30T07:45:16.303Z,4.17
2018-03-30T07:46:16.315Z,4.16
2018-03-30T07:47:16.334Z,4.21
2018-03-30T07:48:16.353Z,4.24
2018-03-30T07:49:16.368Z,4.36
2018-03-30T07:50:16.388Z,4.36
2018-03-30T07:51:16.413Z,4.34
2018-03-30T07:52:16.418Z,4.35
2018-03-30T07:53:16.434Z,4.36
2018-03-30T07:54:16.456Z,4.44
2018-03-30T07:55:16.469Z,4.46
2018-03-30T07:56:16.487Z,4.42
2018-03-30T07:57:16.524Z,4.42
2018-03-30T07:58:16.519Z,4.29
2018-03-30T07:59:16.541Z,4.16
2018-03-30T08:00:16.566Z,4.11
2018-03-30T08:01:16.573Z,4.18
2018-03-30T08:02:16.591Z,4.28
2018-03-30T08:03:16.621Z,4.32
2018-03-30T08:04:16.629Z,4.38
2018-03-30T08:05:16.644Z,4.31
2018-03-30T08:06:16.661Z,4.25
2018-03-30T08:07:16.675Z,4.31
2018-03-30T08:08:16.698Z,4.32
2018-03-30T08:09:16.714Z,4.38
2018-03-30T08:10:16.730Z,4.39
2018-03-30T08:11:16.753Z,4.44
2018-03-30T08:12:16.765Z,4.50
2018-03-30T08:13:16.781Z,4.46
2018-03-30T08:14:16.799Z,4.44
2018-03-30T08:15:16.813Z,4.49
2018-03-30T08:16:16.833Z,4.43
2018-03-30T08:17:16.854Z,4.53
2018-03-30T08:18:16.866Z,4.59
2018-03-30T08:19:16.891Z,4.57
2018-03-30T08:20:16.903Z,4.68
2018-03-30T08:21:16.919Z,4.71
2018-03-30T08:22:16.934Z,4.71
2018-03-30T08:23:16.958Z,4.65
2018-03-30T08:24:16.978Z,4.72
2018-03-30T08:25:16.988Z,4.80
2018-03-30T08:26:17.007Z,4.90
2018-03-30T08:27:17.018Z,4.77
2018-03-30T08:28:17.042Z,4.97
2018-03-30T08:29:17.057Z,5.15
2018-03-30T08:30:17.072Z,5.09
2018-03-30T08:31:17.093Z,5.11
2018-03-30T08:32:17.109Z,5.06
2018-03-30T08:33:17.129Z,5.05
2018-03-30T08:34:17.144Z,5.17
2018-03-30T08:35:17.164Z,5.20
2018-03-30T08:36:17.177Z,5.30
2018-03-30T08:37:17.203Z,5.27
2018-03-30T08:38:17.213Z,5.22
2018-03-30T08:39:17.232Z,5.29
2018-03-30T08:40:17.257Z,5.30
2018-03-30T08:41:17.268Z,5.30
2018-03-30T08:42:17.282Z,5.37
2018-03-30T08:43:17.306Z,5.48
2018-03-30T08:44:17.325Z,5.51
2018-03-30T08:45:17.342Z,5.65
2018-03-30T08:46:17.356Z,5.66
2018-03-30T08:47:17.375Z,5.62
2018-03-30T08:48:17.398Z,5.69
2018-03-30T08:49:17.419Z,5.62
2018-03-30T08:50:17.431Z,5.70
2018-03-30T08:51:17.447Z,5.77
2018-03-30T08:52:17.472Z,5.70
2018-03-30T08:53:17.482Z,5.81
2018-03-30T08:54:17.505Z,5.83
2018-03-30T08:55:17.556Z,5.85
2018-03-30T08:56:17.536Z,5.90
2018-03-30T08:57:17.555Z,6.01
2018-03-30T08:58:17.571Z,5.70
2018-03-30T08:59:17.597Z,5.60
2018-03-30T09:00:17.616Z,5.63
2018-03-30T09:01:17.631Z,5.63
2018-03-30T09:02:17.647Z,5.65
2018-03-30T09:03:17.670Z,5.56
2018-03-30T09:04:17.689Z,5.60
2018-03-30T09:05:17.710Z,5.51
2018-03-30T09:06:17.721Z,5.55
2018-03-30T09:07:17.743Z,5.55
2018-03-30T09:08:17.760Z,5.55
2018-03-30T09:09:17.782Z,5.56
2018-03-30T09:10:17.797Z,5.40
2018-03-30T09:11:17.815Z,5.38
2018-03-30T09:12:17.835Z,5.32
2018-03-30T09:13:17.856Z,5.33
2018-03-30T09:14:17.872Z,5.40
2018-03-30T09:15:17.891Z,5.51
2018-03-30T09:16:17.907Z,5.58
2018-03-30T09:17:17.929Z,5.69
2018-03-30T09:18:17.946Z,5.85
2018-03-30T09:19:17.965Z,5.81
2018-03-30T09:20:17.991Z,5.85
2018-03-30T09:21:18.001Z,6.10
2018-03-30T09:22:18.019Z,6.21
2018-03-30T09:23:18.040Z,6.14
2018-03-30T09:24:18.059Z,6.28
2018-03-30T09:25:18.081Z,6.27
2018-03-30T09:26:18.094Z,6.36
2018-03-30T09:27:18.115Z,6.43
2018-03-30T09:28:18.134Z,6.38
2018-03-30T09:29:18.153Z,6.46
2018-03-30T09:30:18.170Z,6.32
2018-03-30T09:31:18.189Z,6.36
2018-03-30T09:32:18.213Z,6.46
2018-03-30T09:33:18.230Z,6.60
2018-03-30T09:34:18.245Z,6.50
2018-03-30T09:35:18.264Z,6.86
2018-03-30T09:36:18.288Z,6.93
2018-03-30T09:37:18.308Z,7.04
2018-03-30T09:38:18.327Z,7.29
2018-03-30T09:39:18.339Z,7.30
2018-03-30T09:40:18.358Z,7.48
2018-03-30T09:41:18.389Z,7.63
2018-03-30T09:42:18.407Z,7.77
2018-03-30T09:43:18.419Z,7.79
2018-03-30T09:44:18.443Z,7.81
2018-03-30T09:45:18.472Z,8.02
2018-03-30T09:46:18.482Z,8.13
2018-03-30T09:47:18.500Z,8.06
2018-03-30T09:48:18.520Z,8.21
2018-03-30T09:49:18.538Z,7.96
2018-03-30T09:50:18.559Z,8.13
2018-03-30T09:51:18.578Z,8.09
2018-03-30T09:52:18.605Z,8.12
2018-03-30T09:53:18.624Z,8.10
2018-03-30T09:54:18.643Z,7.95
2018-03-30T09:55:18.664Z,8.12
2018-03-30T09:56:18.679Z,8.14
2018-03-30T09:57:18.714Z,8.29
2018-03-30T09:58:18.723Z,8.34
2018-03-30T09:59:18.744Z,8.43
2018-03-30T10:00:18.767Z,8.46
2018-03-30T10:01:18.783Z,8.57
2018-03-30T10:02:18.806Z,8.52
2018-03-30T10:03:18.832Z,8.55
2018-03-30T10:04:18.849Z,8.73
2018-03-30T10:05:18.870Z,8.70
2018-03-30T10:06:18.887Z,8.85
2018-03-30T10:07:18.909Z,8.61
2018-03-30T10:08:18.934Z,8.55
2018-03-30T10:09:18.952Z,8.63
2018-03-30T10:10:18.975Z,8.50
2018-03-30T10:11:18.990Z,8.68
2018-03-30T10:12:19.017Z,8.78
2018-03-30T10:13:19.038Z,8.83
2018-03-30T10:14:19.058Z,8.79
2018-03-30T10:15:19.074Z,8.88
2018-03-30T10:16:19.109Z,8.82
2018-03-30T10:17:19.119Z,8.50
2018-03-30T10:18:19.145Z,8.50
2018-03-30T10:19:19.163Z,8.60
2018-03-30T10:20:19.183Z,8.63
2018-03-30T10:21:19.205Z,8.80
2018-03-30T10:22:19.228Z,8.83
2018-03-30T10:23:19.244Z,8.80
2018-03-30T10:24:19.271Z,8.94
2018-03-30T10:25:19.293Z,8.93
2018-03-30T10:26:19.308Z,8.97
2018-03-30T10:27:19.343Z,8.78
2018-03-30T10:28:19.352Z,8.80
2018-03-30T10:29:19.376Z,8.80
2018-03-30T10:30:19.434Z,8.82
2018-03-30T10:31:19.420Z,8.97
2018-03-30T10:32:19.439Z,8.97
2018-03-30T10:33:19.471Z,9.00
2018-03-30T10:34:19.485Z,8.93
2018-03-30T10:35:19.507Z,8.83
2018-03-30T10:36:19.526Z,9.00
2018-03-30T10:37:19.553Z,9.08
2018-03-30T10:38:19.566Z,9.15
2018-03-30T10:39:19.591Z,9.27
2018-03-30T10:40:19.614Z,9.23
2018-03-30T10:41:19.645Z,9.22
2018-03-30T10:42:19.652Z,9.24
2018-03-30T10:43:19.677Z,9.13
2018-03-30T10:44:19.698Z,9.10
2018-03-30T10:45:19.720Z,9.19
2018-03-30T10:46:19.741Z,9.24
2018-03-30T10:47:19.764Z,9.42
2018-03-30T10:48:19.789Z,9.48
2018-03-30T10:49:19.809Z,9.44
2018-03-30T10:50:19.827Z,9.52
2018-03-30T10:51:19.846Z,9.45
2018-03-30T10:52:19.877Z,9.34
2018-03-30T10:53:19.889Z,9.30
2018-03-30T10:54:19.914Z,9.48
2018-03-30T10:55:19.934Z,9.52
2018-03-30T10:56:19.958Z,9.50
2018-03-30T10:57:20.004Z,9.35
2018-03-30T10:58:19.996Z,9.45
2018-03-30T10:59:20.022Z,9.63
2018-03-30T11:00:20.078Z,9.78
2018-03-30T11:01:20.079Z,10.02
2018-03-30T11:02:20.085Z,10.11
2018-03-30T11:03:20.114Z,10.14
2018-03-30T11:04:20.140Z,10.39
2018-03-30T11:05:20.185Z,10.86
2018-03-30T11:06:20.176Z,10.99
2018-03-30T11:07:20.202Z,11.74
2018-03-30T11:08:20.219Z,12.33
2018-03-30T11:09:20.245Z,12.85
2018-03-30T11:10:20.271Z,13.81
2018-03-30T11:11:20.290Z,14.97
2018-03-30T11:12:20.314Z,15.81
2018-03-30T11:13:20.390Z,16.03
2018-03-30T11:14:20.366Z,16.14
2018-03-30T11:15:20.386Z,16.73
2018-03-30T11:16:20.413Z,17.68
2018-03-30T11:17:20.440Z,17.40
2018-03-30T11:18:20.476Z,18.17
2018-03-30T11:19:20.488Z,18.91
2018-03-30T11:20:20.528Z,18.57
2018-03-30T11:21:20.544Z,19.05
2018-03-30T11:22:20.563Z,19.34
2018-03-30T11:23:20.597Z,19.35
2018-03-30T11:24:20.618Z,19.65
2018-03-30T11:25:20.650Z,20.50
2018-03-30T11:26:20.672Z,21.06
2018-03-30T11:27:20.701Z,20.68
2018-03-30T11:28:20.732Z,20.58
2018-03-30T11:29:20.759Z,20.02
2018-03-30T11:30:20.782Z,19.25
2018-03-30T11:31:20.816Z,18.60
2018-03-30T11:32:20.846Z,18.89
2018-03-30T11:33:20.891Z,19.27
2018-03-30T11:34:20.902Z,20.04
2018-03-30T11:35:20.934Z,19.97
2018-03-30T11:36:20.965Z,20.26
2018-03-30T11:37:20.989Z,20.22
2018-03-30T11:38:21.017Z,20.60
2018-03-30T11:39:21.048Z,20.16
2018-03-30T11:40:21.093Z,20.35
2018-03-30T11:41:21.107Z,20.15
2018-03-30T11:42:21.145Z,19.55
2018-03-30T11:43:21.168Z,20.08
2018-03-30T11:44:21.197Z,20.61
2018-03-30T11:45:21.226Z,20.85
2018-03-30T11:46:21.258Z,20.56
2018-03-30T11:47:21.290Z,20.60
2018-03-30T11:48:21.329Z,21.42
2018-03-30T11:49:21.354Z,22.14
2018-03-30T11:50:21.383Z,22.44
2018-03-30T11:51:21.427Z,22.39
2018-03-30T11:52:21.445Z,22.75
2018-03-30T11:53:21.476Z,23.04
2018-03-30T11:54:21.506Z,23.39
2018-03-30T11:55:21.540Z,23.67
2018-03-30T11:56:21.575Z,23.38
2018-03-30T11:57:21.620Z,23.31
2018-03-30T11:58:21.632Z,22.93
2018-03-30T11:59:21.669Z,23.34
2018-03-30T12:00:21.698Z,23.32
2018-03-30T12:01:21.734Z,23.60
2018-03-30T12:02:21.761Z,23.29
2018-03-30T12:03:21.791Z,23.11
2018-03-30T12:04:21.827Z,23.44
2018-03-30T12:05:21.864Z,23.29
2018-03-30T12:06:21.892Z,23.60
2018-03-30T12:07:21.922Z,24.14
2018-03-30T12:08:21.956Z,23.99
2018-03-30T12:09:21.991Z,24.36
2018-03-30T12:10:22.022Z,25.07
2018-03-30T12:11:22.058Z,25.39
2018-03-30T12:12:22.091Z,25.76
2018-03-30T12:13:22.129Z,25.42
2018-03-30T12:14:22.160Z,25.74
2018-03-30T12:15:22.195Z,26.06
2018-03-30T12:16:22.230Z,26.08
2018-03-30T12:17:22.264Z,25.51
2018-03-30T12:18:22.299Z,24.82
2018-03-30T12:19:22.326Z,24.21
2018-03-30T12:20:22.369Z,21.98
2018-03-30T12:21:22.406Z,20.26
2018-03-30T12:22:22.432Z,19.75
2018-03-30T12:23:22.470Z,18.89
2018-03-30T12:24:22.496Z,19.28
2018-03-30T12:25:22.539Z,18.66
2018-03-30T12:26:22.565Z,18.69
2018-03-30T12:27:22.597Z,18.79
2018-03-30T12:28:22.632Z,18.50
2018-03-30T12:29:22.665Z,18.17
2018-03-30T12:30:22.694Z,18.14
2018-03-30T12:31:22.730Z,18.20
2018-03-30T12:32:22.760Z,18.04
2018-03-30T12:33:22.800Z,17.94
2018-03-30T12:34:22.828Z,16.92
2018-03-30T12:35:22.859Z,17.24
2018-03-30T12:36:22.898Z,17.22
2018-03-30T12:37:22.924Z,18.10
2018-03-30T12:38:22.969Z,18.51
2018-03-30T12:39:23.027Z,18.71
2018-03-30T12:40:23.025Z,18.53
2018-03-30T12:41:23.053Z,18.87
2018-03-30T12:42:23.080Z,20.05
2018-03-30T12:43:23.124Z,20.93
2018-03-30T12:44:23.148Z,20.12
2018-03-30T12:45:23.182Z,21.01
2018-03-30T12:46:23.217Z,21.53
2018-03-30T12:47:23.248Z,21.79
2018-03-30T12:48:23.276Z,20.85
2018-03-30T12:49:23.304Z,21.45
2018-03-30T12:50:23.340Z,22.75
2018-03-30T12:51:23.372Z,23.26
2018-03-30T12:52:23.404Z,24.63
2018-03-30T12:53:23.437Z,25.24
2018-03-30T12:54:23.517Z,25.39
2018-03-30T12:55:23.499Z,26.06
2018-03-30T12:56:23.535Z,25.64
2018-03-30T12:57:23.569Z,25.66
2018-03-30T12:58:23.603Z,25.09
2018-03-30T12:59:23.637Z,24.80
2018-03-30T13:00:23.678Z,24.67
2018-03-30T13:01:23.704Z,23.67
2018-03-30T13:02:23.739Z,23.12
2018-03-30T13:03:23.772Z,23.04
2018-03-30T13:04:23.803Z,23.29
2018-03-30T13:05:23.843Z,23.72
2018-03-30T13:06:23.875Z,23.86
2018-03-30T13:07:23.906Z,24.05
2018-03-30T13:08:23.939Z,24.26
2018-03-30T13:09:23.980Z,24.86
2018-03-30T13:10:24.012Z,25.85
2018-03-30T13:11:24.050Z,25.46
2018-03-30T13:12:24.083Z,25.05
2018-03-30T13:13:24.116Z,24.87
2018-03-30T13:14:24.222Z,24.23